createdAt,value
2022-09-30T00:01:55.833Z,8.80
2022-09-30T00:04:25.434Z,8.80
2022-09-30T00:06:55.059Z,8.80
2022-09-30T00:09:23.749Z,8.80
2022-09-30T00:11:52.145Z,8.80
2022-09-30T00:14:24.561Z,8.80
2022-09-30T00:16:52.718Z,8.80
2022-09-30T00:19:21.227Z,8.80
2022-09-30T00:21:49.433Z,8.80
2022-09-30T00:24:17.558Z,8.80
2022-09-30T00:26:45.857Z,8.80
2022-09-30T00:29:14.261Z,8.80
2022-09-30T00:31:44.197Z,8.70
2022-09-30T00:34:12.641Z,8.80
2022-09-30T00:36:44.592Z,8.80
2022-09-30T00:39:15.092Z,8.80
2022-09-30T00:41:43.472Z,8.70
2022-09-30T00:44:57.449Z,8.70
2022-09-30T00:47:55.351Z,8.70
2022-09-30T00:50:39.794Z,8.70
2022-09-30T00:53:15.298Z,8.60
2022-09-30T00:55:51.911Z,8.60
2022-09-30T00:58:26.369Z,8.60
2022-09-30T01:00:55.097Z,8.60
2022-09-30T01:03:25.591Z,8.50
2022-09-30T01:05:53.967Z,8.50
2022-09-30T01:08:23.439Z,8.50
2022-09-30T01:10:51.667Z,8.40
2022-09-30T01:13:22.487Z,8.40
2022-09-30T01:16:16.574Z,8.40
2022-09-30T01:18:57.246Z,8.40
2022-09-30T01:21:52.164Z,8.40
2022-09-30T01:24:46.701Z,8.40
2022-09-30T01:27:44.333Z,8.30
2022-09-30T01:30:16.232Z,8.40
2022-09-30T01:33:05.723Z,8.40
2022-09-30T01:35:43.294Z,8.40
2022-09-30T01:38:20.097Z,8.40
2022-09-30T01:40:55.015Z,8.40
2022-09-30T01:43:32.414Z,8.40
2022-09-30T01:46:05.678Z,8.40
2022-09-30T01:48:40.714Z,8.40
2022-09-30T01:51:14.273Z,8.40
2022-09-30T01:53:47.889Z,8.40
2022-09-30T01:56:22.499Z,8.40
2022-09-30T01:58:57.229Z,8.40
2022-09-30T02:01:31.739Z,8.40
2022-09-30T02:04:06.987Z,8.40
2022-09-30T02:06:40.488Z,8.40
2022-09-30T02:09:14.640Z,8.40
2022-09-30T02:11:44.154Z,8.40
2022-09-30T02:14:18.144Z,8.40
2022-09-30T02:16:51.958Z,8.40
2022-09-30T02:19:25.626Z,8.40
2022-09-30T02:22:01.064Z,8.40
2022-09-30T02:24:37.122Z,8.40
2022-09-30T02:27:09.500Z,8.40
2022-09-30T02:29:43.023Z,8.40
2022-09-30T02:32:16.509Z,8.40
2022-09-30T02:34:51.423Z,8.40
2022-09-30T02:37:25.607Z,8.40
2022-09-30T02:39:59.494Z,8.40
2022-09-30T02:42:30.232Z,8.40
2022-09-30T02:45:05.999Z,8.40
2022-09-30T02:47:47.732Z,8.30
2022-09-30T02:50:21.864Z,8.30
2022-09-30T02:53:01.558Z,8.30
2022-09-30T02:55:33.642Z,8.30
2022-09-30T02:58:12.217Z,8.30
2022-09-30T03:00:41.191Z,8.30
2022-09-30T03:03:16.940Z,8.20
2022-09-30T03:05:47.045Z,8.30
2022-09-30T03:08:15.384Z,8.30
2022-09-30T03:10:44.447Z,8.30
2022-09-30T03:13:35.033Z,8.30
2022-09-30T03:16:15.182Z,8.20
2022-09-30T03:18:58.635Z,8.20
2022-09-30T03:21:43.921Z,8.20
2022-09-30T03:24:32.131Z,8.10
2022-09-30T03:27:13.221Z,8.10
2022-09-30T03:29:49.132Z,8.20
2022-09-30T03:32:32.746Z,8.10
2022-09-30T03:35:08.188Z,8.20
2022-09-30T03:37:46.274Z,8.10
2022-09-30T03:40:24.405Z,8.10
2022-09-30T03:42:57.246Z,8.10
2022-09-30T03:45:32.986Z,8.00
2022-09-30T03:48:06.389Z,8.00
2022-09-30T03:50:38.111Z,8.00
2022-09-30T03:53:12.768Z,8.00
2022-09-30T03:55:52.506Z,8.00
2022-09-30T03:58:23.423Z,8.00
2022-09-30T04:00:54.406Z,8.00
2022-09-30T04:03:24.125Z,8.00
2022-09-30T04:05:52.446Z,8.00
2022-09-30T04:08:23.247Z,8.10
2022-09-30T04:10:51.302Z,8.00
2022-09-30T04:13:19.462Z,8.10
2022-09-30T04:15:55.258Z,8.10
2022-09-30T04:18:23.754Z,8.00
2022-09-30T04:20:51.872Z,8.10
2022-09-30T04:23:21.669Z,8.10
2022-09-30T04:25:53.964Z,8.10
2022-09-30T04:28:22.784Z,8.10
2022-09-30T04:30:51.276Z,8.10
2022-09-30T04:33:19.433Z,8.10
2022-09-30T04:35:47.901Z,8.00
2022-09-30T04:38:16.459Z,8.00
2022-09-30T04:40:45.989Z,8.00
2022-09-30T04:43:14.710Z,8.00
2022-09-30T04:45:45.375Z,8.00
2022-09-30T04:48:13.788Z,8.00
2022-09-30T04:50:42.564Z,8.00
2022-09-30T04:53:12.867Z,7.90
2022-09-30T04:55:41.007Z,7.90
2022-09-30T04:58:10.642Z,7.90
2022-09-30T05:00:39.515Z,7.90
2022-09-30T05:03:07.792Z,7.90
2022-09-30T05:05:36.090Z,7.90
2022-09-30T05:08:05.458Z,7.90
2022-09-30T05:10:33.737Z,7.90
2022-09-30T05:13:02.507Z,7.90
2022-09-30T05:15:31.936Z,7.90
2022-09-30T05:18:00.251Z,7.90
2022-09-30T05:20:28.705Z,7.90
2022-09-30T05:22:57.675Z,7.90
2022-09-30T05:25:25.825Z,8.00
2022-09-30T05:27:54.150Z,8.00
2022-09-30T05:30:22.244Z,8.00
2022-09-30T05:32:51.904Z,8.10
2022-09-30T05:35:20.102Z,8.10
2022-09-30T05:37:48.251Z,8.10
2022-09-30T05:40:16.497Z,8.10
2022-09-30T05:42:47.327Z,8.10
2022-09-30T05:45:15.619Z,8.20
2022-09-30T05:47:44.246Z,8.20
2022-09-30T05:50:14.079Z,8.20
2022-09-30T05:52:42.245Z,8.20
2022-09-30T05:55:10.999Z,8.30
2022-09-30T05:57:39.620Z,8.30
2022-09-30T06:00:08.603Z,8.30
2022-09-30T06:02:38.597Z,8.40
2022-09-30T06:05:07.584Z,8.40
2022-09-30T06:07:38.033Z,8.40
2022-09-30T06:10:09.300Z,8.40
2022-09-30T06:12:38.573Z,8.50
2022-09-30T06:15:07.922Z,8.50
2022-09-30T06:17:36.421Z,8.50
2022-09-30T06:20:05.352Z,8.50
2022-09-30T06:22:37.090Z,8.50
2022-09-30T06:25:07.151Z,8.60
2022-09-30T06:27:35.809Z,8.60
2022-09-30T06:30:03.973Z,8.60
2022-09-30T06:32:32.224Z,8.60
2022-09-30T06:35:00.673Z,8.60
2022-09-30T06:37:29.072Z,8.60
2022-09-30T06:39:58.702Z,8.60
2022-09-30T06:42:26.910Z,8.60
2022-09-30T06:44:55.792Z,8.60
2022-09-30T06:47:25.816Z,8.60
2022-09-30T06:49:58.742Z,8.70
2022-09-30T06:52:27.955Z,8.70
2022-09-30T06:54:57.508Z,8.80
2022-09-30T06:57:27.920Z,8.80
2022-09-30T06:59:56.642Z,8.80
2022-09-30T07:02:25.272Z,8.80
2022-09-30T07:04:53.789Z,8.80
2022-09-30T07:07:22.330Z,8.90
2022-09-30T07:09:51.038Z,8.90
2022-09-30T07:12:20.669Z,9.00
2022-09-30T07:14:51.293Z,9.10
2022-09-30T07:17:19.785Z,9.10
2022-09-30T07:19:48.672Z,9.20
2022-09-30T07:22:29.635Z,9.20
2022-09-30T07:24:59.774Z,9.30
2022-09-30T07:27:28.997Z,9.30
2022-09-30T07:30:24.510Z,9.40
2022-09-30T07:32:47.634Z,9.40
2022-09-30T07:35:16.278Z,9.50
2022-09-30T07:37:44.598Z,9.50
2022-09-30T07:40:13.663Z,9.50
2022-09-30T07:42:46.050Z,9.60
2022-09-30T07:45:17.349Z,9.70
2022-09-30T07:47:49.668Z,9.70
2022-09-30T07:50:21.257Z,9.70
2022-09-30T07:52:49.386Z,9.80
2022-09-30T07:55:17.566Z,9.80
2022-09-30T07:57:45.822Z,9.90
2022-09-30T08:00:41.199Z,10.00
2022-09-30T08:03:04.238Z,10.00
2022-09-30T08:05:32.480Z,10.10
2022-09-30T08:08:00.583Z,10.10
2022-09-30T08:10:28.826Z,10.10
2022-09-30T08:12:59.209Z,10.10
2022-09-30T08:15:30.682Z,10.10
2022-09-30T08:17:58.919Z,10.20
2022-09-30T08:20:27.177Z,10.20
2022-09-30T08:22:55.792Z,10.20
2022-09-30T08:25:24.271Z,10.40
2022-09-30T08:27:52.486Z,10.40
2022-09-30T08:30:20.801Z,10.50
2022-09-30T08:32:50.637Z,10.60
2022-09-30T08:35:18.789Z,10.70
2022-09-30T08:37:47.130Z,10.70
2022-09-30T08:40:22.547Z,10.80
2022-09-30T08:43:05.385Z,10.80
2022-09-30T08:45:42.824Z,10.80
2022-09-30T08:48:23.651Z,10.80
2022-09-30T08:51:04.094Z,10.90
2022-09-30T08:53:36.937Z,10.90
2022-09-30T08:56:06.818Z,10.80
2022-09-30T08:58:37.983Z,10.90
2022-09-30T09:01:14.588Z,11.00
2022-09-30T09:03:45.705Z,11.00
2022-09-30T09:06:25.536Z,11.10
2022-09-30T09:09:18.426Z,11.20
2022-09-30T09:12:02.766Z,11.30
2022-09-30T09:14:41.235Z,11.60
2022-09-30T09:17:21.876Z,11.60
2022-09-30T09:19:59.882Z,11.60
2022-09-30T09:22:29.596Z,11.70
2022-09-30T09:24:59.194Z,11.70
2022-09-30T09:27:32.237Z,11.70
2022-09-30T09:30:06.699Z,11.80
2022-09-30T09:32:35.938Z,11.90
2022-09-30T09:35:15.212Z,12.00
2022-09-30T09:38:10.862Z,11.90
2022-09-30T09:40:57.394Z,12.00
2022-09-30T09:43:36.199Z,12.10
2022-09-30T09:46:14.643Z,12.10
2022-09-30T09:48:44.918Z,12.10
2022-09-30T09:51:22.784Z,12.00
2022-09-30T09:53:53.134Z,12.00
2022-09-30T09:56:26.350Z,12.20
2022-09-30T09:59:09.572Z,12.20
2022-09-30T10:01:39.957Z,12.20
2022-09-30T10:04:15.767Z,12.10
2022-09-30T10:06:49.088Z,12.20
2022-09-30T10:09:30.078Z,12.40
2022-09-30T10:12:29.677Z,12.40
2022-09-30T10:15:03.678Z,12.30
2022-09-30T10:17:33.856Z,12.30
2022-09-30T10:20:07.188Z,12.30
2022-09-30T10:22:37.958Z,12.40
2022-09-30T10:25:20.490Z,12.40
2022-09-30T10:27:52.528Z,12.40
2022-09-30T10:30:50.447Z,12.40
2022-09-30T10:33:26.933Z,12.40
2022-09-30T10:35:58.547Z,12.40
2022-09-30T10:38:29.931Z,12.40
2022-09-30T10:40:59.194Z,12.30
2022-09-30T10:43:31.597Z,12.30
2022-09-30T10:48:55.115Z,12.30
2022-09-30T10:51:34.178Z,12.50
2022-09-30T10:54:05.643Z,12.60
2022-09-30T10:56:38.256Z,12.60
2022-09-30T10:59:16.670Z,12.50
2022-09-30T11:01:52.521Z,12.40
2022-09-30T11:04:29.753Z,12.50
2022-09-30T11:07:05.140Z,12.50
2022-09-30T11:09:44.270Z,12.40
2022-09-30T11:12:21.571Z,12.40
2022-09-30T11:14:57.771Z,12.50
2022-09-30T11:17:35.242Z,12.50
2022-09-30T11:20:12.954Z,12.70
2022-09-30T11:22:48.552Z,12.70
2022-09-30T11:25:24.506Z,12.70
2022-09-30T11:28:06.438Z,12.80
2022-09-30T11:30:43.259Z,12.80
2022-09-30T11:33:26.488Z,12.90
2022-09-30T11:36:05.688Z,12.90
2022-09-30T11:38:53.676Z,12.90
2022-09-30T11:41:29.906Z,12.90
2022-09-30T11:44:06.642Z,12.90
2022-09-30T11:46:51.751Z,12.80
2022-09-30T11:49:38.971Z,12.90
2022-09-30T11:52:17.318Z,12.90
2022-09-30T11:54:58.048Z,12.90
2022-09-30T11:57:36.166Z,13.00
2022-09-30T12:00:08.679Z,12.90
2022-09-30T12:02:40.221Z,12.90
2022-09-30T12:05:13.424Z,13.00
2022-09-30T12:07:46.792Z,13.00
2022-09-30T12:10:22.294Z,13.10
2022-09-30T12:12:57.603Z,13.20
2022-09-30T12:15:27.263Z,13.20
2022-09-30T12:18:00.355Z,13.20
2022-09-30T12:20:33.175Z,13.10
2022-09-30T12:23:10.461Z,13.00
2022-09-30T12:25:42.975Z,12.90
2022-09-30T12:28:41.222Z,12.90
2022-09-30T12:31:30.692Z,13.00
2022-09-30T12:34:13.082Z,13.00
2022-09-30T12:37:02.741Z,13.30
2022-09-30T12:39:54.905Z,13.20
2022-09-30T12:42:48.358Z,13.10
2022-09-30T12:45:39.569Z,13.00
2022-09-30T12:48:15.119Z,12.90
2022-09-30T12:50:49.432Z,12.70
2022-09-30T12:53:20.841Z,12.60
2022-09-30T12:55:50.638Z,12.70
2022-09-30T12:58:28.645Z,12.80
2022-09-30T13:01:05.651Z,12.80
2022-09-30T13:03:47.366Z,13.00
2022-09-30T13:06:16.851Z,13.00
2022-09-30T13:09:03.849Z,13.00
2022-09-30T13:11:38.205Z,12.80
2022-09-30T13:14:34.543Z,12.70
2022-09-30T13:17:26.552Z,12.70
2022-09-30T13:19:57.556Z,12.70
2022-09-30T13:22:57.249Z,12.60
2022-09-30T13:25:25.758Z,12.50
2022-09-30T13:28:10.795Z,12.40
2022-09-30T13:30:42.855Z,12.30
2022-09-30T13:33:45.915Z,12.30
2022-09-30T13:36:30.869Z,12.40
2022-09-30T13:39:22.729Z,12.40
2022-09-30T13:42:02.597Z,12.40
2022-09-30T13:44:40.128Z,12.50
2022-09-30T13:47:19.107Z,12.40
2022-09-30T13:49:58.738Z,12.50
2022-09-30T13:52:30.754Z,12.60
2022-09-30T13:55:04.735Z,12.60
2022-09-30T13:57:45.435Z,12.60
2022-09-30T14:00:17.405Z,12.50
2022-09-30T14:03:10.932Z,12.40
2022-09-30T14:06:05.051Z,12.40
2022-09-30T14:09:14.370Z,12.30
2022-09-30T14:12:14.545Z,12.20
2022-09-30T14:15:09.298Z,12.20
2022-09-30T14:17:50.275Z,12.20
2022-09-30T14:20:32.053Z,12.30
2022-09-30T14:23:01.781Z,12.30
2022-09-30T14:25:37.149Z,12.40
2022-09-30T14:28:08.781Z,12.40
2022-09-30T14:30:42.043Z,12.50
2022-09-30T14:33:20.200Z,12.40
2022-09-30T14:35:49.442Z,12.40
2022-09-30T14:38:22.459Z,12.40
2022-09-30T14:40:53.294Z,12.50
2022-09-30T14:43:24.890Z,12.40
2022-09-30T14:45:56.405Z,12.40
2022-09-30T14:48:29.213Z,12.40
2022-09-30T14:51:02.634Z,12.30
2022-09-30T14:53:34.413Z,12.20
2022-09-30T14:56:05.343Z,12.20
2022-09-30T14:58:42.438Z,12.30
2022-09-30T15:01:15.298Z,14.20
2022-09-30T15:03:46.403Z,17.80
2022-09-30T15:06:20.717Z,18.70
2022-09-30T15:08:51.369Z,17.50
2022-09-30T15:11:21.831Z,16.40
2022-09-30T15:13:52.918Z,18.00
2022-09-30T15:16:25.457Z,19.10
2022-09-30T15:18:54.587Z,18.20
2022-09-30T15:21:24.393Z,16.60
2022-09-30T15:23:57.252Z,14.90
2022-09-30T15:26:27.749Z,13.70
2022-09-30T15:28:56.003Z,13.00
2022-09-30T15:31:28.444Z,12.50
2022-09-30T15:34:06.204Z,12.20
2022-09-30T15:36:37.063Z,12.00
2022-09-30T15:39:08.218Z,11.80
2022-09-30T15:41:42.229Z,11.70
2022-09-30T15:44:18.850Z,11.60
2022-09-30T15:47:04.124Z,11.40
2022-09-30T15:49:36.346Z,11.30
2022-09-30T15:52:29.395Z,11.20
2022-09-30T15:54:59.474Z,11.00
2022-09-30T15:57:47.017Z,11.00
2022-09-30T16:00:36.585Z,10.90
2022-09-30T16:03:29.022Z,10.90
2022-09-30T16:06:08.078Z,10.80
2022-09-30T16:08:43.744Z,10.60
2022-09-30T16:11:20.785Z,10.60
2022-09-30T16:13:50.205Z,10.60
2022-09-30T16:16:22.272Z,10.60
2022-09-30T16:18:52.232Z,10.60
2022-09-30T16:21:40.554Z,10.50
2022-09-30T16:24:44.611Z,10.40
2022-09-30T16:27:33.188Z,10.30
2022-09-30T16:30:02.277Z,10.20
2022-09-30T16:32:34.889Z,10.20
2022-09-30T16:35:03.088Z,10.20
2022-09-30T16:37:31.630Z,10.20
2022-09-30T16:40:16.285Z,10.20
2022-09-30T16:42:46.563Z,10.10
2022-09-30T16:45:15.720Z,10.10
2022-09-30T16:47:44.392Z,10.10
2022-09-30T16:50:24.552Z,10.10
2022-09-30T16:52:53.064Z,10.00
2022-09-30T16:55:21.498Z,9.90
2022-09-30T16:57:51.453Z,9.80
2022-09-30T17:00:20.299Z,9.80
2022-09-30T17:02:49.985Z,9.60
2022-09-30T17:05:20.283Z,9.60
2022-09-30T17:07:52.326Z,9.50
2022-09-30T17:10:24.052Z,9.40
2022-09-30T17:12:54.004Z,9.30
2022-09-30T17:15:22.134Z,9.20
2022-09-30T17:17:50.544Z,9.20
2022-09-30T17:20:19.089Z,9.10
2022-09-30T17:22:47.788Z,9.10
2022-09-30T17:25:16.477Z,9.00
2022-09-30T17:27:49.251Z,9.00
2022-09-30T17:30:19.368Z,9.10
2022-09-30T17:32:48.302Z,9.10
2022-09-30T17:35:17.153Z,9.10
2022-09-30T17:37:46.606Z,9.10
2022-09-30T17:40:33.404Z,9.00
2022-09-30T17:43:11.517Z,9.10
2022-09-30T17:45:43.675Z,9.00
2022-09-30T17:48:13.101Z,9.10
2022-09-30T17:50:44.669Z,9.20
2022-09-30T17:53:14.113Z,9.10
2022-09-30T17:55:43.599Z,9.10
2022-09-30T17:58:12.700Z,9.00
2022-09-30T18:00:42.560Z,9.00
2022-09-30T18:03:11.113Z,8.90
2022-09-30T18:05:39.581Z,8.90
2022-09-30T18:08:07.743Z,8.90
2022-09-30T18:10:37.998Z,8.80
2022-09-30T18:13:06.625Z,8.80
2022-09-30T18:15:35.156Z,8.80
2022-09-30T18:18:04.754Z,8.70
2022-09-30T18:20:33.200Z,8.70
2022-09-30T18:23:01.311Z,8.70
2022-09-30T18:25:30.373Z,8.60
2022-09-30T18:28:00.402Z,8.60
2022-09-30T18:30:29.103Z,8.50
2022-09-30T18:32:59.088Z,8.50
2022-09-30T18:35:31.989Z,8.40
2022-09-30T18:38:00.704Z,8.40
2022-09-30T18:40:30.339Z,8.40
2022-09-30T18:43:00.240Z,8.30
2022-09-30T18:45:29.890Z,8.30
2022-09-30T18:47:59.684Z,8.30
2022-09-30T18:50:30.913Z,8.30
2022-09-30T18:53:02.817Z,8.40
2022-09-30T18:55:35.179Z,8.40
2022-09-30T18:58:03.528Z,8.40
2022-09-30T19:00:31.666Z,8.40
2022-09-30T19:03:00.146Z,8.40
2022-09-30T19:05:29.641Z,8.40
2022-09-30T19:07:57.858Z,8.30
2022-09-30T19:10:26.398Z,8.30
2022-09-30T19:12:54.550Z,8.30
2022-09-30T19:15:23.598Z,8.20
2022-09-30T19:17:53.983Z,8.30
2022-09-30T19:20:22.674Z,8.20
2022-09-30T19:22:52.356Z,8.20
2022-09-30T19:25:20.951Z,8.10
2022-09-30T19:27:50.042Z,8.10
2022-09-30T19:30:20.777Z,8.00
2022-09-30T19:32:49.142Z,8.00
2022-09-30T19:35:18.999Z,8.00
2022-09-30T19:37:58.899Z,7.90
2022-09-30T19:43:02.071Z,7.90
2022-09-30T19:45:31.458Z,7.90
2022-09-30T19:48:00.289Z,7.80
2022-09-30T19:50:28.473Z,7.90
2022-09-30T19:52:57.864Z,7.90
2022-09-30T19:55:26.700Z,8.10
2022-09-30T19:57:56.186Z,8.40
2022-09-30T20:00:24.639Z,8.70
2022-09-30T20:02:53.073Z,8.90
2022-09-30T20:05:21.576Z,9.10
2022-09-30T20:07:51.214Z,9.40
2022-09-30T20:10:20.313Z,9.50
2022-09-30T20:12:48.474Z,9.60
2022-09-30T20:15:35.811Z,9.60
2022-09-30T20:18:05.177Z,9.70
2022-09-30T20:20:37.423Z,9.60
2022-09-30T20:23:06.211Z,9.50
2022-09-30T20:25:35.529Z,9.50
2022-09-30T20:28:05.191Z,9.40
2022-09-30T20:30:38.777Z,9.30
2022-09-30T20:33:07.181Z,9.20
2022-09-30T20:35:36.864Z,9.10
2022-09-30T20:38:05.364Z,9.00
2022-09-30T20:40:34.878Z,9.00
2022-09-30T20:43:04.183Z,9.00
2022-09-30T20:45:32.411Z,9.00
2022-09-30T20:48:02.878Z,9.10
2022-09-30T20:50:36.891Z,9.00
2022-09-30T20:53:10.977Z,9.00
2022-09-30T20:55:40.894Z,8.90
2022-09-30T20:58:10.847Z,8.90
2022-09-30T21:00:41.520Z,8.80
2022-09-30T21:03:12.935Z,8.80
2022-09-30T21:05:41.723Z,8.80
2022-09-30T21:08:10.410Z,8.80
2022-09-30T21:10:38.664Z,8.80
2022-09-30T21:13:11.546Z,8.70
2022-09-30T21:15:40.125Z,8.70
2022-09-30T21:18:10.251Z,8.70
2022-09-30T21:20:38.667Z,8.70
2022-09-30T21:23:07.113Z,8.80
2022-09-30T21:25:35.530Z,8.80
2022-09-30T21:28:04.837Z,8.90
2022-09-30T21:30:33.107Z,8.90
2022-09-30T21:33:01.337Z,9.00
2022-09-30T21:35:30.845Z,8.90
2022-09-30T21:37:59.137Z,8.90
2022-09-30T21:40:28.034Z,9.00
2022-09-30T21:42:56.426Z,9.10
2022-09-30T21:45:25.334Z,9.10
2022-09-30T21:48:02.498Z,9.20
2022-09-30T21:50:32.888Z,9.10
2022-09-30T21:53:01.023Z,9.20
2022-09-30T21:55:30.643Z,9.30
2022-09-30T21:57:59.449Z,9.30
2022-09-30T22:00:28.056Z,9.30
2022-09-30T22:02:56.249Z,9.30
2022-09-30T22:05:24.435Z,9.40
2022-09-30T22:07:53.965Z,9.40
2022-09-30T22:10:22.337Z,9.40
2022-09-30T22:12:51.239Z,9.40
2022-09-30T22:15:19.412Z,9.40
2022-09-30T22:17:47.716Z,9.40
2022-09-30T22:20:16.265Z,9.40
2022-09-30T22:22:44.521Z,9.40
2022-09-30T22:25:14.398Z,9.30
2022-09-30T22:27:43.176Z,9.30
2022-09-30T22:30:11.853Z,9.30
2022-09-30T22:32:40.061Z,9.30
2022-09-30T22:35:26.412Z,9.30
2022-09-30T22:38:12.219Z,9.20
2022-09-30T22:40:41.912Z,9.20
2022-09-30T22:43:10.077Z,9.20
2022-09-30T22:45:38.211Z,9.20
2022-09-30T22:48:06.833Z,9.30
2022-09-30T22:50:36.901Z,9.30
2022-09-30T22:53:05.325Z,9.40
2022-09-30T22:55:34.944Z,9.40
2022-09-30T22:58:04.466Z,9.40
2022-09-30T23:00:32.656Z,9.40
2022-09-30T23:03:00.973Z,9.30
2022-09-30T23:05:29.073Z,9.20
2022-09-30T23:07:57.513Z,9.10
2022-09-30T23:10:26.682Z,9.10
2022-09-30T23:12:54.784Z,9.10
2022-09-30T23:15:24.490Z,9.20
2022-09-30T23:17:52.676Z,9.30
2022-09-30T23:20:20.960Z,9.30
2022-09-30T23:22:49.078Z,9.20
2022-09-30T23:25:17.648Z,9.10
2022-09-30T23:27:48.953Z,9.10
2022-09-30T23:30:17.893Z,9.00
2022-09-30T23:32:47.726Z,8.90
2022-09-30T23:35:15.929Z,9.00
2022-09-30T23:37:44.103Z,9.10
2022-09-30T23:40:12.538Z,9.20
2022-09-30T23:42:40.640Z,9.30
2022-09-30T23:45:10.161Z,9.20
2022-09-30T23:47:38.625Z,9.10
2022-09-30T23:50:09.382Z,9.20
2022-09-30T23:52:37.695Z,9.30
2022-09-30T23:55:06.401Z,9.50
2022-09-30T23:57:34.859Z,9.60
